Impacts METAR Board
IDs:

KBBD - Brady/Curtis Fld, TX, US

Updated at: 1200 UTC 07 Jul 2020
Potential Impact None Slight Moderate High
Time 07/00Z 07/01Z 07/02Z 07/03Z 07/04Z 07/05Z 07/06Z 07/07Z 07/08Z 07/09Z 07/10Z 07/11Z 07/12Z
Temp90 90 84 82 81 81 77 75 73 73 73 75 75
Dewpt61 59 59 61 61 63 64 66 68 64 66 66 68
Altim29.90 29.90 29.91 29.92 29.95 29.95 29.95 29.95 29.95 29.95 29.94 29.96 29.96
VIS10 10 10 10 10 10 10 10 10 10 10 10 10
CIG-- -- -- -- -- -- -- -- -- -- -- 85 90
CoverCLRCLRCLRCLRSCTCLRFEWCLRCLRFEWCLRBKNOVC
FltCatVFRVFRVFRVFRVFRVFRVFRVFRVFRVFRVFRVFRVFR
WX--------------------------
WDir110809090908070700000160
WSpd4 5 5 4 4 5 5 5 0 0 0 0 6
WGst-- -- -- -- -- -- -- -- -- -- -- -- --
Raw hourly METARs
KBBD 062355Z AUTO 11004KT 10SM CLR 32/16 A2990 RMK AO2
KBBD 070055Z AUTO 08005KT 10SM CLR 32/15 A2990 RMK AO2
KBBD 070155Z AUTO 09005KT 10SM CLR 29/15 A2991 RMK AO2
KBBD 070255Z AUTO 09004KT 10SM CLR 28/16 A2992 RMK AO2
KBBD 070355Z AUTO 09004KT 10SM SCT110 27/16 A2995 RMK AO2
KBBD 070455Z AUTO 08005KT 10SM CLR 27/17 A2995 RMK AO2
KBBD 070555Z AUTO 07005KT 10SM FEW110 25/18 A2995 RMK AO2
KBBD 070655Z AUTO 07005KT 10SM CLR 24/19 A2995 RMK AO2
KBBD 070755Z AUTO 00000KT 10SM CLR 23/20 A2995 RMK AO2
KBBD 070855Z AUTO 00000KT 10SM FEW050 FEW110 23/18 A2995 RMK AO2
KBBD 070955Z AUTO 00000KT 10SM CLR 23/19 A2994 RMK AO2
KBBD 071055Z AUTO 00000KT 10SM BKN085 BKN120 24/19 A2996 RMK AO2
KBBD 071155Z AUTO 16006KT 10SM OVC090 24/20 A2996 RMK AO2



Page loaded:  12:50 UTC  |   05:50 AM Pacific  |   06:50 AM Mountain  |   07:50 AM Central  |   08:50 AM Eastern

 

ADVISORIES

FORECASTS

FORECASTS

OBSERVATIONS

USER TOOLS

ABOUT US